sensor_id;sensor_type;location;lat;lon;timestamp;P1;durP1;ratioP1;P2;durP2;ratioP2
34072;SDS011;20346;52.702;16.886;2022-08-20T00:01:42;34.90;;;31.33;;
34072;SDS011;20346;52.702;16.886;2022-08-20T00:04:26;35.38;;;31.60;;
34072;SDS011;20346;52.702;16.886;2022-08-20T00:07:12;33.30;;;29.90;;
34072;SDS011;20346;52.702;16.886;2022-08-20T00:09:58;34.63;;;31.05;;
34072;SDS011;20346;52.702;16.886;2022-08-20T00:12:44;35.13;;;31.42;;
34072;SDS011;20346;52.702;16.886;2022-08-20T00:15:32;33.48;;;30.27;;
34072;SDS011;20346;52.702;16.886;2022-08-20T00:18:20;35.63;;;30.12;;
34072;SDS011;20346;52.702;16.886;2022-08-20T00:21:06;34.87;;;31.57;;
34072;SDS011;20346;52.702;16.886;2022-08-20T00:23:55;34.08;;;30.65;;
34072;SDS011;20346;52.702;16.886;2022-08-20T00:26:40;34.35;;;30.85;;
34072;SDS011;20346;52.702;16.886;2022-08-20T00:29:25;33.23;;;29.95;;
34072;SDS011;20346;52.702;16.886;2022-08-20T00:32:10;35.25;;;31.48;;
34072;SDS011;20346;52.702;16.886;2022-08-20T00:34:55;37.25;;;29.75;;
34072;SDS011;20346;52.702;16.886;2022-08-20T00:37:40;31.17;;;28.07;;
34072;SDS011;20346;52.702;16.886;2022-08-20T00:46:24;32.50;;;29.20;;
34072;SDS011;20346;52.702;16.886;2022-08-20T00:49:14;32.75;;;29.48;;
34072;SDS011;20346;52.702;16.886;2022-08-20T00:52:03;34.15;;;30.27;;
34072;SDS011;20346;52.702;16.886;2022-08-20T00:54:57;34.70;;;31.10;;
34072;SDS011;20346;52.702;16.886;2022-08-20T00:57:45;33.55;;;30.30;;
34072;SDS011;20346;52.702;16.886;2022-08-20T01:00:36;34.80;;;31.33;;
34072;SDS011;20346;52.702;16.886;2022-08-20T01:03:25;34.78;;;31.30;;
34072;SDS011;20346;52.702;16.886;2022-08-20T01:06:10;33.40;;;29.90;;
34072;SDS011;20346;52.702;16.886;2022-08-20T01:08:55;34.45;;;30.62;;
34072;SDS011;20346;52.702;16.886;2022-08-20T01:11:41;32.60;;;29.32;;
34072;SDS011;20346;52.702;16.886;2022-08-20T01:14:26;31.52;;;28.38;;
34072;SDS011;20346;52.702;16.886;2022-08-20T01:17:18;33.58;;;30.27;;
34072;SDS011;20346;52.702;16.886;2022-08-20T01:20:07;37.10;;;30.88;;
34072;SDS011;20346;52.702;16.886;2022-08-20T01:23:06;34.98;;;30.20;;
34072;SDS011;20346;52.702;16.886;2022-08-20T01:29:24;31.12;;;28.05;;
34072;SDS011;20346;52.702;16.886;2022-08-20T01:32:12;33.65;;;30.12;;
34072;SDS011;20346;52.702;16.886;2022-08-20T01:34:57;34.80;;;31.20;;
34072;SDS011;20346;52.702;16.886;2022-08-20T01:37:41;33.92;;;30.55;;
34072;SDS011;20346;52.702;16.886;2022-08-20T01:40:30;33.83;;;30.43;;
34072;SDS011;20346;52.702;16.886;2022-08-20T01:43:37;33.60;;;30.30;;
34072;SDS011;20346;52.702;16.886;2022-08-20T01:46:36;33.25;;;29.87;;
34072;SDS011;20346;52.702;16.886;2022-08-20T01:49:21;33.53;;;30.12;;
34072;SDS011;20346;52.702;16.886;2022-08-20T01:52:14;32.88;;;29.57;;
34072;SDS011;20346;52.702;16.886;2022-08-20T01:55:02;32.93;;;29.75;;
34072;SDS011;20346;52.702;16.886;2022-08-20T01:57:48;32.40;;;29.18;;
34072;SDS011;20346;52.702;16.886;2022-08-20T02:00:33;33.45;;;30.25;;
34072;SDS011;20346;52.702;16.886;2022-08-20T02:03:18;32.90;;;29.65;;
34072;SDS011;20346;52.702;16.886;2022-08-20T02:06:03;31.42;;;28.35;;
34072;SDS011;20346;52.702;16.886;2022-08-20T02:08:49;33.60;;;30.50;;
34072;SDS011;20346;52.702;16.886;2022-08-20T02:11:35;33.48;;;29.75;;
34072;SDS011;20346;52.702;16.886;2022-08-20T02:14:20;35.25;;;30.02;;
34072;SDS011;20346;52.702;16.886;2022-08-20T02:17:06;32.08;;;28.98;;
34072;SDS011;20346;52.702;16.886;2022-08-20T02:19:59;32.75;;;29.20;;
34072;SDS011;20346;52.702;16.886;2022-08-20T02:23:03;32.05;;;28.75;;
34072;SDS011;20346;52.702;16.886;2022-08-20T02:25:49;30.80;;;27.62;;
34072;SDS011;20346;52.702;16.886;2022-08-20T02:28:34;31.42;;;28.42;;
34072;SDS011;20346;52.702;16.886;2022-08-20T02:31:20;32.20;;;29.07;;
34072;SDS011;20346;52.702;16.886;2022-08-20T02:34:06;31.57;;;28.00;;
34072;SDS011;20346;52.702;16.886;2022-08-20T02:36:54;31.90;;;28.60;;
34072;SDS011;20346;52.702;16.886;2022-08-20T02:39:39;31.37;;;28.15;;
34072;SDS011;20346;52.702;16.886;2022-08-20T02:42:24;30.92;;;27.62;;
34072;SDS011;20346;52.702;16.886;2022-08-20T02:45:10;29.72;;;26.80;;
34072;SDS011;20346;52.702;16.886;2022-08-20T02:47:58;30.80;;;27.75;;
34072;SDS011;20346;52.702;16.886;2022-08-20T02:50:43;30.72;;;27.55;;
34072;SDS011;20346;52.702;16.886;2022-08-20T02:53:29;31.93;;;28.55;;
34072;SDS011;20346;52.702;16.886;2022-08-20T02:56:16;30.65;;;27.65;;
34072;SDS011;20346;52.702;16.886;2022-08-20T02:59:01;29.45;;;26.52;;
34072;SDS011;20346;52.702;16.886;2022-08-20T03:01:46;28.85;;;26.17;;
34072;SDS011;20346;52.702;16.886;2022-08-20T03:04:31;29.57;;;26.57;;
34072;SDS011;20346;52.702;16.886;2022-08-20T03:07:16;29.63;;;26.73;;
34072;SDS011;20346;52.702;16.886;2022-08-20T03:10:01;29.45;;;26.55;;
34072;SDS011;20346;52.702;16.886;2022-08-20T03:12:47;31.52;;;28.52;;
34072;SDS011;20346;52.702;16.886;2022-08-20T03:15:32;29.65;;;26.70;;
34072;SDS011;20346;52.702;16.886;2022-08-20T03:18:18;28.38;;;25.77;;
34072;SDS011;20346;52.702;16.886;2022-08-20T03:21:05;31.27;;;28.17;;
34072;SDS011;20346;52.702;16.886;2022-08-20T03:23:52;31.12;;;27.98;;
34072;SDS011;20346;52.702;16.886;2022-08-20T03:26:37;29.85;;;27.02;;
34072;SDS011;20346;52.702;16.886;2022-08-20T03:29:21;29.90;;;26.55;;
34072;SDS011;20346;52.702;16.886;2022-08-20T03:32:06;30.45;;;27.55;;
34072;SDS011;20346;52.702;16.886;2022-08-20T03:34:51;30.10;;;27.30;;
34072;SDS011;20346;52.702;16.886;2022-08-20T03:37:36;30.30;;;27.30;;
34072;SDS011;20346;52.702;16.886;2022-08-20T03:40:23;29.02;;;26.17;;
34072;SDS011;20346;52.702;16.886;2022-08-20T03:43:11;30.60;;;27.70;;
34072;SDS011;20346;52.702;16.886;2022-08-20T03:45:56;29.98;;;26.80;;
34072;SDS011;20346;52.702;16.886;2022-08-20T03:48:41;28.73;;;25.90;;
34072;SDS011;20346;52.702;16.886;2022-08-20T03:51:29;25.37;;;23.15;;
34072;SDS011;20346;52.702;16.886;2022-08-20T03:54:16;26.65;;;24.23;;
34072;SDS011;20346;52.702;16.886;2022-08-20T03:57:01;29.12;;;26.33;;
34072;SDS011;20346;52.702;16.886;2022-08-20T03:59:46;28.30;;;25.50;;
34072;SDS011;20346;52.702;16.886;2022-08-20T04:02:31;29.48;;;26.70;;
34072;SDS011;20346;52.702;16.886;2022-08-20T04:05:15;29.63;;;26.52;;
34072;SDS011;20346;52.702;16.886;2022-08-20T04:08:01;30.02;;;27.30;;
34072;SDS011;20346;52.702;16.886;2022-08-20T04:10:48;29.82;;;26.93;;
34072;SDS011;20346;52.702;16.886;2022-08-20T04:13:34;30.72;;;27.85;;
34072;SDS011;20346;52.702;16.886;2022-08-20T04:16:19;30.32;;;27.35;;
34072;SDS011;20346;52.702;16.886;2022-08-20T04:19:03;28.60;;;25.70;;
34072;SDS011;20346;52.702;16.886;2022-08-20T04:21:48;29.12;;;26.35;;
34072;SDS011;20346;52.702;16.886;2022-08-20T04:24:33;29.48;;;26.48;;
34072;SDS011;20346;52.702;16.886;2022-08-20T04:30:05;27.58;;;24.72;;
34072;SDS011;20346;52.702;16.886;2022-08-20T04:32:54;27.50;;;24.90;;
34072;SDS011;20346;52.702;16.886;2022-08-20T04:35:39;30.12;;;27.20;;
34072;SDS011;20346;52.702;16.886;2022-08-20T04:38:24;29.80;;;26.77;;
34072;SDS011;20346;52.702;16.886;2022-08-20T04:41:08;29.10;;;26.42;;
34072;SDS011;20346;52.702;16.886;2022-08-20T04:43:54;28.30;;;25.45;;
34072;SDS011;20346;52.702;16.886;2022-08-20T04:46:40;26.93;;;24.43;;
34072;SDS011;20346;52.702;16.886;2022-08-20T04:49:26;28.98;;;26.27;;
34072;SDS011;20346;52.702;16.886;2022-08-20T04:52:11;28.85;;;26.25;;
34072;SDS011;20346;52.702;16.886;2022-08-20T04:54:56;28.55;;;25.95;;
34072;SDS011;20346;52.702;16.886;2022-08-20T04:57:41;29.18;;;26.30;;
34072;SDS011;20346;52.702;16.886;2022-08-20T05:00:26;27.67;;;25.20;;
34072;SDS011;20346;52.702;16.886;2022-08-20T05:03:11;29.40;;;26.73;;
34072;SDS011;20346;52.702;16.886;2022-08-20T05:05:56;28.92;;;25.95;;
34072;SDS011;20346;52.702;16.886;2022-08-20T05:08:42;27.80;;;25.02;;
34072;SDS011;20346;52.702;16.886;2022-08-20T05:11:28;31.10;;;27.90;;
34072;SDS011;20346;52.702;16.886;2022-08-20T05:14:13;30.37;;;26.68;;
34072;SDS011;20346;52.702;16.886;2022-08-20T05:17:01;29.98;;;27.07;;
34072;SDS011;20346;52.702;16.886;2022-08-20T05:19:50;30.72;;;27.62;;
34072;SDS011;20346;52.702;16.886;2022-08-20T05:22:35;29.65;;;26.77;;
34072;SDS011;20346;52.702;16.886;2022-08-20T05:25:20;30.48;;;27.52;;
34072;SDS011;20346;52.702;16.886;2022-08-20T05:28:07;29.98;;;27.02;;
34072;SDS011;20346;52.702;16.886;2022-08-20T05:30:55;30.45;;;27.48;;
34072;SDS011;20346;52.702;16.886;2022-08-20T05:33:40;30.52;;;27.45;;
34072;SDS011;20346;52.702;16.886;2022-08-20T05:36:25;27.30;;;24.85;;
34072;SDS011;20346;52.702;16.886;2022-08-20T05:39:10;29.65;;;26.55;;
34072;SDS011;20346;52.702;16.886;2022-08-20T05:41:55;29.92;;;26.85;;
34072;SDS011;20346;52.702;16.886;2022-08-20T05:44:40;28.42;;;24.92;;
34072;SDS011;20346;52.702;16.886;2022-08-20T05:47:25;27.07;;;24.20;;
34072;SDS011;20346;52.702;16.886;2022-08-20T05:50:12;29.52;;;26.62;;
34072;SDS011;20346;52.702;16.886;2022-08-20T05:52:58;28.60;;;25.70;;
34072;SDS011;20346;52.702;16.886;2022-08-20T05:55:44;29.77;;;26.85;;
34072;SDS011;20346;52.702;16.886;2022-08-20T05:58:30;29.90;;;25.60;;
34072;SDS011;20346;52.702;16.886;2022-08-20T06:01:15;28.47;;;25.48;;
34072;SDS011;20346;52.702;16.886;2022-08-20T06:04:00;28.67;;;25.82;;
34072;SDS011;20346;52.702;16.886;2022-08-20T06:07:05;28.60;;;25.45;;
34072;SDS011;20346;52.702;16.886;2022-08-20T06:09:51;31.37;;;26.82;;
34072;SDS011;20346;52.702;16.886;2022-08-20T06:12:36;29.80;;;26.65;;
34072;SDS011;20346;52.702;16.886;2022-08-20T06:15:20;29.50;;;26.45;;
34072;SDS011;20346;52.702;16.886;2022-08-20T06:18:06;30.17;;;26.80;;
34072;SDS011;20346;52.702;16.886;2022-08-20T06:20:52;32.58;;;27.25;;
34072;SDS011;20346;52.702;16.886;2022-08-20T06:23:37;30.88;;;27.55;;
34072;SDS011;20346;52.702;16.886;2022-08-20T06:26:22;30.72;;;27.77;;
34072;SDS011;20346;52.702;16.886;2022-08-20T06:29:07;32.60;;;29.20;;
34072;SDS011;20346;52.702;16.886;2022-08-20T06:31:52;31.10;;;27.85;;
34072;SDS011;20346;52.702;16.886;2022-08-20T06:34:38;31.37;;;28.17;;
34072;SDS011;20346;52.702;16.886;2022-08-20T06:37:24;29.25;;;26.27;;
34072;SDS011;20346;52.702;16.886;2022-08-20T06:40:12;34.08;;;28.60;;
34072;SDS011;20346;52.702;16.886;2022-08-20T06:43:00;31.57;;;28.27;;
34072;SDS011;20346;52.702;16.886;2022-08-20T06:45:45;30.68;;;26.73;;
34072;SDS011;20346;52.702;16.886;2022-08-20T06:48:30;30.97;;;27.70;;
34072;SDS011;20346;52.702;16.886;2022-08-20T06:51:15;32.17;;;27.20;;
34072;SDS011;20346;52.702;16.886;2022-08-20T06:54:00;30.35;;;27.10;;
34072;SDS011;20346;52.702;16.886;2022-08-20T06:56:45;28.73;;;25.62;;
34072;SDS011;20346;52.702;16.886;2022-08-20T06:59:30;30.23;;;26.90;;
34072;SDS011;20346;52.702;16.886;2022-08-20T07:02:15;30.77;;;27.62;;
34072;SDS011;20346;52.702;16.886;2022-08-20T07:05:00;28.17;;;25.40;;
34072;SDS011;20346;52.702;16.886;2022-08-20T07:07:47;29.48;;;26.20;;
34072;SDS011;20346;52.702;16.886;2022-08-20T07:10:33;29.48;;;26.33;;
34072;SDS011;20346;52.702;16.886;2022-08-20T07:13:18;28.55;;;25.57;;
34072;SDS011;20346;52.702;16.886;2022-08-20T07:16:04;30.60;;;27.07;;
34072;SDS011;20346;52.702;16.886;2022-08-20T07:18:49;29.37;;;26.45;;
34072;SDS011;20346;52.702;16.886;2022-08-20T07:21:34;30.12;;;26.93;;
34072;SDS011;20346;52.702;16.886;2022-08-20T07:24:19;28.67;;;25.88;;
34072;SDS011;20346;52.702;16.886;2022-08-20T07:27:04;29.55;;;26.50;;
34072;SDS011;20346;52.702;16.886;2022-08-20T07:29:50;28.38;;;25.37;;
34072;SDS011;20346;52.702;16.886;2022-08-20T07:32:54;29.90;;;26.55;;
34072;SDS011;20346;52.702;16.886;2022-08-20T07:35:40;29.65;;;26.73;;
34072;SDS011;20346;52.702;16.886;2022-08-20T07:41:13;27.80;;;24.80;;
34072;SDS011;20346;52.702;16.886;2022-08-20T07:43:59;28.32;;;25.23;;
34072;SDS011;20346;52.702;16.886;2022-08-20T07:46:45;35.43;;;27.10;;
34072;SDS011;20346;52.702;16.886;2022-08-20T07:49:30;30.10;;;26.85;;
34072;SDS011;20346;52.702;16.886;2022-08-20T07:52:16;26.90;;;24.03;;
34072;SDS011;20346;52.702;16.886;2022-08-20T07:55:02;29.00;;;25.88;;
34072;SDS011;20346;52.702;16.886;2022-08-20T07:57:53;29.10;;;26.10;;
34072;SDS011;20346;52.702;16.886;2022-08-20T08:00:42;28.55;;;23.57;;
34072;SDS011;20346;52.702;16.886;2022-08-20T08:03:27;26.75;;;24.07;;
34072;SDS011;20346;52.702;16.886;2022-08-20T08:06:12;27.80;;;24.95;;
34072;SDS011;20346;52.702;16.886;2022-08-20T08:08:59;26.93;;;23.98;;
34072;SDS011;20346;52.702;16.886;2022-08-20T08:11:48;27.27;;;24.47;;
34072;SDS011;20346;52.702;16.886;2022-08-20T08:14:33;26.62;;;23.98;;
34072;SDS011;20346;52.702;16.886;2022-08-20T08:17:18;26.07;;;23.52;;
34072;SDS011;20346;52.702;16.886;2022-08-20T08:20:05;26.42;;;23.83;;
34072;SDS011;20346;52.702;16.886;2022-08-20T08:22:51;24.63;;;22.13;;
34072;SDS011;20346;52.702;16.886;2022-08-20T08:25:40;25.23;;;22.65;;
34072;SDS011;20346;52.702;16.886;2022-08-20T08:28:25;25.15;;;22.45;;
34072;SDS011;20346;52.702;16.886;2022-08-20T08:31:13;24.10;;;21.68;;
34072;SDS011;20346;52.702;16.886;2022-08-20T08:33:58;23.77;;;21.57;;
34072;SDS011;20346;52.702;16.886;2022-08-20T08:36:43;25.08;;;22.50;;
34072;SDS011;20346;52.702;16.886;2022-08-20T08:39:28;22.20;;;19.98;;
34072;SDS011;20346;52.702;16.886;2022-08-20T08:42:16;24.20;;;19.70;;
34072;SDS011;20346;52.702;16.886;2022-08-20T08:45:16;22.58;;;20.43;;
34072;SDS011;20346;52.702;16.886;2022-08-20T08:48:03;22.55;;;20.48;;
34072;SDS011;20346;52.702;16.886;2022-08-20T08:50:49;23.07;;;20.47;;
34072;SDS011;20346;52.702;16.886;2022-08-20T08:53:36;23.90;;;21.57;;
34072;SDS011;20346;52.702;16.886;2022-08-20T08:56:26;25.52;;;22.93;;
34072;SDS011;20346;52.702;16.886;2022-08-20T08:59:13;23.40;;;20.97;;
34072;SDS011;20346;52.702;16.886;2022-08-20T09:01:58;25.05;;;22.70;;
34072;SDS011;20346;52.702;16.886;2022-08-20T09:04:45;24.95;;;21.57;;
34072;SDS011;20346;52.702;16.886;2022-08-20T09:07:31;21.77;;;19.73;;
34072;SDS011;20346;52.702;16.886;2022-08-20T09:10:17;24.92;;;22.52;;
34072;SDS011;20346;52.702;16.886;2022-08-20T09:13:02;24.32;;;22.00;;
34072;SDS011;20346;52.702;16.886;2022-08-20T09:15:48;24.20;;;21.37;;
34072;SDS011;20346;52.702;16.886;2022-08-20T09:18:32;25.15;;;22.45;;
34072;SDS011;20346;52.702;16.886;2022-08-20T09:21:17;25.35;;;21.93;;
34072;SDS011;20346;52.702;16.886;2022-08-20T09:24:03;23.73;;;21.33;;
34072;SDS011;20346;52.702;16.886;2022-08-20T09:26:48;23.77;;;21.35;;
34072;SDS011;20346;52.702;16.886;2022-08-20T09:29:34;23.55;;;20.97;;
34072;SDS011;20346;52.702;16.886;2022-08-20T09:32:19;24.40;;;21.03;;
34072;SDS011;20346;52.702;16.886;2022-08-20T09:35:07;22.17;;;19.98;;
34072;SDS011;20346;52.702;16.886;2022-08-20T09:37:53;27.75;;;20.80;;
34072;SDS011;20346;52.702;16.886;2022-08-20T09:40:38;23.32;;;20.97;;
34072;SDS011;20346;52.702;16.886;2022-08-20T09:43:24;24.72;;;22.35;;
34072;SDS011;20346;52.702;16.886;2022-08-20T09:46:09;24.20;;;21.85;;
34072;SDS011;20346;52.702;16.886;2022-08-20T09:48:54;25.53;;;21.13;;
34072;SDS011;20346;52.702;16.886;2022-08-20T09:51:39;24.73;;;20.41;;
34072;SDS011;20346;52.702;16.886;2022-08-20T09:54:24;25.08;;;22.67;;
34072;SDS011;20346;52.702;16.886;2022-08-20T09:57:11;25.17;;;22.75;;
34072;SDS011;20346;52.702;16.886;2022-08-20T10:00:03;25.62;;;23.02;;
34072;SDS011;20346;52.702;16.886;2022-08-20T10:02:46;25.82;;;23.20;;
34072;SDS011;20346;52.702;16.886;2022-08-20T10:05:31;23.42;;;21.02;;
34072;SDS011;20346;52.702;16.886;2022-08-20T10:08:16;25.00;;;22.37;;
34072;SDS011;20346;52.702;16.886;2022-08-20T10:11:01;23.60;;;21.20;;
34072;SDS011;20346;52.702;16.886;2022-08-20T10:13:47;27.13;;;22.55;;
34072;SDS011;20346;52.702;16.886;2022-08-20T10:16:32;24.23;;;21.82;;
34072;SDS011;20346;52.702;16.886;2022-08-20T10:19:17;23.40;;;21.10;;
34072;SDS011;20346;52.702;16.886;2022-08-20T10:22:02;24.47;;;21.97;;
34072;SDS011;20346;52.702;16.886;2022-08-20T10:24:49;23.67;;;21.25;;
34072;SDS011;20346;52.702;16.886;2022-08-20T10:27:34;24.27;;;21.80;;
34072;SDS011;20346;52.702;16.886;2022-08-20T10:30:21;22.98;;;20.75;;
34072;SDS011;20346;52.702;16.886;2022-08-20T10:33:07;23.70;;;21.25;;
34072;SDS011;20346;52.702;16.886;2022-08-20T10:35:52;23.32;;;21.00;;
34072;SDS011;20346;52.702;16.886;2022-08-20T10:38:37;23.73;;;21.27;;
34072;SDS011;20346;52.702;16.886;2022-08-20T10:41:22;21.12;;;19.12;;
34072;SDS011;20346;52.702;16.886;2022-08-20T10:44:07;23.77;;;21.68;;
34072;SDS011;20346;52.702;16.886;2022-08-20T10:46:53;22.30;;;20.03;;
34072;SDS011;20346;52.702;16.886;2022-08-20T10:49:38;23.57;;;21.07;;
34072;SDS011;20346;52.702;16.886;2022-08-20T10:52:23;22.15;;;20.10;;
34072;SDS011;20346;52.702;16.886;2022-08-20T10:55:09;28.47;;;20.30;;
34072;SDS011;20346;52.702;16.886;2022-08-20T10:57:55;23.97;;;20.30;;
34072;SDS011;20346;52.702;16.886;2022-08-20T11:00:40;25.68;;;23.12;;
34072;SDS011;20346;52.702;16.886;2022-08-20T11:03:25;22.95;;;20.55;;
34072;SDS011;20346;52.702;16.886;2022-08-20T11:06:10;25.08;;;20.82;;
34072;SDS011;20346;52.702;16.886;2022-08-20T11:08:55;23.75;;;21.48;;
34072;SDS011;20346;52.702;16.886;2022-08-20T11:11:40;23.57;;;21.25;;
34072;SDS011;20346;52.702;16.886;2022-08-20T11:14:25;22.52;;;20.35;;
34072;SDS011;20346;52.702;16.886;2022-08-20T11:17:10;23.57;;;21.12;;
34072;SDS011;20346;52.702;16.886;2022-08-20T11:19:56;22.83;;;20.47;;
34072;SDS011;20346;52.702;16.886;2022-08-20T11:22:41;23.27;;;20.92;;
34072;SDS011;20346;52.702;16.886;2022-08-20T11:25:27;26.70;;;22.42;;
34072;SDS011;20346;52.702;16.886;2022-08-20T11:28:12;25.10;;;22.42;;
34072;SDS011;20346;52.702;16.886;2022-08-20T11:30:58;25.15;;;22.07;;
34072;SDS011;20346;52.702;16.886;2022-08-20T11:33:43;24.50;;;22.05;;
34072;SDS011;20346;52.702;16.886;2022-08-20T11:36:28;23.40;;;21.02;;
34072;SDS011;20346;52.702;16.886;2022-08-20T11:39:14;22.80;;;20.40;;
34072;SDS011;20346;52.702;16.886;2022-08-20T11:41:58;24.20;;;20.35;;
34072;SDS011;20346;52.702;16.886;2022-08-20T11:44:44;23.10;;;20.70;;
34072;SDS011;20346;52.702;16.886;2022-08-20T11:47:29;21.85;;;19.73;;
34072;SDS011;20346;52.702;16.886;2022-08-20T11:50:17;22.62;;;20.27;;
34072;SDS011;20346;52.702;16.886;2022-08-20T11:53:04;26.33;;;20.48;;
34072;SDS011;20346;52.702;16.886;2022-08-20T11:55:49;21.65;;;19.23;;
34072;SDS011;20346;52.702;16.886;2022-08-20T11:58:34;40.15;;;19.00;;
34072;SDS011;20346;52.702;16.886;2022-08-20T12:01:18;20.52;;;18.40;;
34072;SDS011;20346;52.702;16.886;2022-08-20T12:04:03;22.22;;;19.30;;
34072;SDS011;20346;52.702;16.886;2022-08-20T12:06:48;23.00;;;18.52;;
34072;SDS011;20346;52.702;16.886;2022-08-20T12:09:33;41.00;;;19.45;;
34072;SDS011;20346;52.702;16.886;2022-08-20T12:12:19;20.65;;;18.57;;
34072;SDS011;20346;52.702;16.886;2022-08-20T12:15:07;19.77;;;17.65;;
34072;SDS011;20346;52.702;16.886;2022-08-20T12:17:53;21.70;;;18.35;;
34072;SDS011;20346;52.702;16.886;2022-08-20T12:20:38;20.80;;;18.40;;
34072;SDS011;20346;52.702;16.886;2022-08-20T12:23:23;22.87;;;18.73;;
34072;SDS011;20346;52.702;16.886;2022-08-20T12:26:08;21.33;;;19.15;;
34072;SDS011;20346;52.702;16.886;2022-08-20T12:28:53;21.57;;;17.62;;
34072;SDS011;20346;52.702;16.886;2022-08-20T12:31:39;19.45;;;17.40;;
34072;SDS011;20346;52.702;16.886;2022-08-20T12:34:24;19.57;;;17.62;;
34072;SDS011;20346;52.702;16.886;2022-08-20T12:37:11;20.85;;;18.70;;
34072;SDS011;20346;52.702;16.886;2022-08-20T12:39:59;27.00;;;18.80;;
34072;SDS011;20346;52.702;16.886;2022-08-20T12:42:48;23.27;;;20.88;;
34072;SDS011;20346;52.702;16.886;2022-08-20T12:45:34;30.57;;;22.13;;
34072;SDS011;20346;52.702;16.886;2022-08-20T12:48:19;20.68;;;18.57;;
34072;SDS011;20346;52.702;16.886;2022-08-20T12:51:04;17.07;;;15.05;;
34072;SDS011;20346;52.702;16.886;2022-08-20T12:53:49;19.77;;;15.03;;
34072;SDS011;20346;52.702;16.886;2022-08-20T12:56:35;17.32;;;15.58;;
34072;SDS011;20346;52.702;16.886;2022-08-20T12:59:23;17.12;;;15.40;;
34072;SDS011;20346;52.702;16.886;2022-08-20T13:02:09;16.20;;;14.70;;
34072;SDS011;20346;52.702;16.886;2022-08-20T13:04:54;18.73;;;16.93;;
34072;SDS011;20346;52.702;16.886;2022-08-20T13:07:39;20.32;;;18.20;;
34072;SDS011;20346;52.702;16.886;2022-08-20T13:10:32;20.32;;;18.32;;
34072;SDS011;20346;52.702;16.886;2022-08-20T13:13:17;22.85;;;20.65;;
34072;SDS011;20346;52.702;16.886;2022-08-20T13:16:02;24.30;;;21.80;;
34072;SDS011;20346;52.702;16.886;2022-08-20T13:18:48;23.47;;;21.40;;
34072;SDS011;20346;52.702;16.886;2022-08-20T13:21:33;23.57;;;21.23;;
34072;SDS011;20346;52.702;16.886;2022-08-20T13:24:19;24.02;;;21.60;;
34072;SDS011;20346;52.702;16.886;2022-08-20T13:27:06;25.45;;;20.75;;
34072;SDS011;20346;52.702;16.886;2022-08-20T13:29:58;20.62;;;18.73;;
34072;SDS011;20346;52.702;16.886;2022-08-20T13:32:43;22.35;;;19.20;;
34072;SDS011;20346;52.702;16.886;2022-08-20T13:35:29;21.52;;;19.52;;
34072;SDS011;20346;52.702;16.886;2022-08-20T13:38:14;20.37;;;18.37;;
34072;SDS011;20346;52.702;16.886;2022-08-20T13:40:59;21.40;;;19.05;;
34072;SDS011;20346;52.702;16.886;2022-08-20T13:43:44;20.85;;;18.82;;
34072;SDS011;20346;52.702;16.886;2022-08-20T13:46:29;26.48;;;20.23;;
34072;SDS011;20346;52.702;16.886;2022-08-20T13:49:14;20.23;;;18.07;;
34072;SDS011;20346;52.702;16.886;2022-08-20T13:51:59;21.25;;;19.15;;
34072;SDS011;20346;52.702;16.886;2022-08-20T13:54:44;20.70;;;18.30;;
34072;SDS011;20346;52.702;16.886;2022-08-20T13:57:29;18.95;;;17.10;;
34072;SDS011;20346;52.702;16.886;2022-08-20T14:00:15;18.23;;;16.45;;
34072;SDS011;20346;52.702;16.886;2022-08-20T14:03:05;18.80;;;17.12;;
34072;SDS011;20346;52.702;16.886;2022-08-20T14:05:50;20.05;;;16.10;;
34072;SDS011;20346;52.702;16.886;2022-08-20T14:08:35;18.52;;;16.93;;
34072;SDS011;20346;52.702;16.886;2022-08-20T14:11:20;20.35;;;17.07;;
34072;SDS011;20346;52.702;16.886;2022-08-20T14:14:06;17.92;;;16.27;;
34072;SDS011;20346;52.702;16.886;2022-08-20T14:16:51;18.65;;;16.35;;
34072;SDS011;20346;52.702;16.886;2022-08-20T14:19:36;15.98;;;14.50;;
34072;SDS011;20346;52.702;16.886;2022-08-20T14:22:22;17.07;;;15.43;;
34072;SDS011;20346;52.702;16.886;2022-08-20T14:25:09;16.60;;;14.43;;
34072;SDS011;20346;52.702;16.886;2022-08-20T14:27:56;15.88;;;14.43;;
34072;SDS011;20346;52.702;16.886;2022-08-20T14:30:42;16.97;;;15.18;;
34072;SDS011;20346;52.702;16.886;2022-08-20T14:33:27;15.70;;;14.40;;
34072;SDS011;20346;52.702;16.886;2022-08-20T14:36:13;18.27;;;15.28;;
34072;SDS011;20346;52.702;16.886;2022-08-20T14:38:58;16.62;;;15.18;;
34072;SDS011;20346;52.702;16.886;2022-08-20T14:41:43;16.93;;;15.28;;
34072;SDS011;20346;52.702;16.886;2022-08-20T14:44:28;17.10;;;15.43;;
34072;SDS011;20346;52.702;16.886;2022-08-20T14:50:09;16.52;;;14.93;;
34072;SDS011;20346;52.702;16.886;2022-08-20T14:52:58;16.02;;;14.73;;
34072;SDS011;20346;52.702;16.886;2022-08-20T14:55:44;16.32;;;14.93;;
34072;SDS011;20346;52.702;16.886;2022-08-20T14:58:29;16.48;;;14.80;;
34072;SDS011;20346;52.702;16.886;2022-08-20T15:01:14;17.12;;;15.63;;
34072;SDS011;20346;52.702;16.886;2022-08-20T15:03:59;16.15;;;14.58;;
34072;SDS011;20346;52.702;16.886;2022-08-20T15:06:45;17.55;;;15.93;;
34072;SDS011;20346;52.702;16.886;2022-08-20T15:09:31;17.82;;;16.02;;
34072;SDS011;20346;52.702;16.886;2022-08-20T15:12:18;17.30;;;15.70;;
34072;SDS011;20346;52.702;16.886;2022-08-20T15:15:04;18.07;;;15.35;;
34072;SDS011;20346;52.702;16.886;2022-08-20T15:17:54;17.02;;;15.40;;
34072;SDS011;20346;52.702;16.886;2022-08-20T15:20:43;23.00;;;18.20;;
34072;SDS011;20346;52.702;16.886;2022-08-20T15:23:27;17.90;;;16.20;;
34072;SDS011;20346;52.702;16.886;2022-08-20T15:26:12;17.87;;;16.30;;
34072;SDS011;20346;52.702;16.886;2022-08-20T15:28:58;17.45;;;15.83;;
34072;SDS011;20346;52.702;16.886;2022-08-20T15:31:43;16.25;;;14.80;;
34072;SDS011;20346;52.702;16.886;2022-08-20T15:34:28;17.85;;;15.98;;
34072;SDS011;20346;52.702;16.886;2022-08-20T15:37:18;18.40;;;16.75;;
34072;SDS011;20346;52.702;16.886;2022-08-20T15:40:03;18.07;;;14.93;;
34072;SDS011;20346;52.702;16.886;2022-08-20T15:42:50;19.30;;;17.60;;
34072;SDS011;20346;52.702;16.886;2022-08-20T15:45:35;18.20;;;16.32;;
34072;SDS011;20346;52.702;16.886;2022-08-20T15:48:21;17.77;;;16.10;;
34072;SDS011;20346;52.702;16.886;2022-08-20T15:51:21;17.85;;;15.95;;
34072;SDS011;20346;52.702;16.886;2022-08-20T15:54:22;20.92;;;15.72;;
34072;SDS011;20346;52.702;16.886;2022-08-20T15:57:13;16.93;;;15.23;;
34072;SDS011;20346;52.702;16.886;2022-08-20T16:00:20;22.32;;;20.08;;
34072;SDS011;20346;52.702;16.886;2022-08-20T16:06:37;96.92;;;57.55;;
34072;SDS011;20346;52.702;16.886;2022-08-20T16:12:32;36.85;;;25.45;;
34072;SDS011;20346;52.702;16.886;2022-08-20T16:18:15;29.48;;;21.52;;
34072;SDS011;20346;52.702;16.886;2022-08-20T16:21:07;30.45;;;22.37;;
34072;SDS011;20346;52.702;16.886;2022-08-20T16:23:56;25.88;;;22.27;;
34072;SDS011;20346;52.702;16.886;2022-08-20T16:29:59;28.17;;;22.52;;